createdAt,value
2018-06-20T00:00:05.241Z,974.19
2018-06-20T00:01:05.227Z,974.19
2018-06-20T00:02:05.178Z,974.23
2018-06-20T00:03:05.102Z,974.20
2018-06-20T00:04:05.056Z,974.20
2018-06-20T00:05:05.052Z,974.19
2018-06-20T00:06:04.962Z,974.17
2018-06-20T00:07:04.918Z,974.15
2018-06-20T00:08:04.871Z,974.16
2018-06-20T00:09:04.826Z,974.16
2018-06-20T00:10:04.811Z,974.13
2018-06-20T00:11:04.748Z,974.13
2018-06-20T00:12:04.691Z,974.14
2018-06-20T00:13:04.640Z,974.12
2018-06-20T00:14:04.631Z,974.12
2018-06-20T00:15:04.548Z,974.16
2018-06-20T00:16:04.507Z,974.16
2018-06-20T00:17:04.588Z,974.16
2018-06-20T00:18:04.412Z,974.17
2018-06-20T00:19:04.368Z,974.19
2018-06-20T00:20:04.319Z,974.18
2018-06-20T00:21:04.271Z,974.16
2018-06-20T00:22:04.264Z,974.17
2018-06-20T00:23:04.184Z,974.16
2018-06-20T00:24:04.136Z,974.10
2018-06-20T00:25:04.121Z,974.13
2018-06-20T00:26:04.085Z,974.13
2018-06-20T00:27:03.998Z,974.12
2018-06-20T00:28:03.951Z,974.13
2018-06-20T00:29:03.909Z,974.15
2018-06-20T00:30:03.860Z,974.13
2018-06-20T00:31:03.844Z,974.13
2018-06-20T00:32:03.768Z,974.11
2018-06-20T00:33:03.720Z,974.10
2018-06-20T00:34:03.677Z,974.09
2018-06-20T00:35:03.672Z,974.06
2018-06-20T00:36:03.589Z,974.09
2018-06-20T00:37:03.539Z,974.08
2018-06-20T00:38:03.493Z,974.07
2018-06-20T00:39:03.447Z,974.09
2018-06-20T00:40:03.441Z,974.08
2018-06-20T00:41:03.355Z,974.10
2018-06-20T00:42:03.308Z,974.11
2018-06-20T00:43:03.259Z,974.07
2018-06-20T00:44:03.217Z,974.10
2018-06-20T00:45:03.211Z,974.10
2018-06-20T00:46:03.687Z,974.08
2018-06-20T00:47:03.081Z,974.12
2018-06-20T00:48:03.032Z,974.12
2018-06-20T00:49:02.983Z,974.06
2018-06-20T00:50:02.973Z,974.03
2018-06-20T00:51:02.924Z,974.04
2018-06-20T00:52:02.849Z,974.02
2018-06-20T00:53:02.802Z,974.01
2018-06-20T00:54:02.754Z,973.98
2018-06-20T00:55:02.741Z,973.96
2018-06-20T00:56:02.660Z,973.99
2018-06-20T00:57:02.650Z,973.97
2018-06-20T00:58:02.572Z,973.96
2018-06-20T00:59:02.522Z,973.95
2018-06-20T01:00:02.478Z,973.96
2018-06-20T01:01:02.460Z,974.00
2018-06-20T01:02:02.390Z,973.99
2018-06-20T01:03:02.337Z,973.98
2018-06-20T01:04:02.324Z,973.96
2018-06-20T01:05:02.247Z,973.93
2018-06-20T01:06:02.198Z,973.92
2018-06-20T01:07:02.199Z,973.91
2018-06-20T01:08:02.109Z,973.90
2018-06-20T01:09:02.061Z,973.88
2018-06-20T01:10:02.016Z,973.88
2018-06-20T01:11:01.968Z,973.94
2018-06-20T01:12:01.961Z,973.91
2018-06-20T01:13:01.875Z,973.91
2018-06-20T01:14:01.829Z,973.90
2018-06-20T01:15:01.778Z,973.91
2018-06-20T01:16:01.734Z,973.86
2018-06-20T01:17:01.738Z,973.89
2018-06-20T01:18:01.639Z,973.91
2018-06-20T01:19:01.590Z,973.89
2018-06-20T01:20:01.546Z,973.88
2018-06-20T01:21:01.499Z,973.87
2018-06-20T01:22:01.484Z,973.91
2018-06-20T01:23:01.414Z,973.92
2018-06-20T01:24:01.392Z,973.93
2018-06-20T01:25:01.312Z,973.97
2018-06-20T01:26:01.270Z,973.96
2018-06-20T01:27:01.225Z,973.93
2018-06-20T01:28:01.205Z,973.94
2018-06-20T01:29:01.126Z,973.93
2018-06-20T01:30:01.112Z,973.95
2018-06-20T01:31:01.032Z,973.88
2018-06-20T01:32:00.984Z,973.88
2018-06-20T01:33:00.937Z,973.90
2018-06-20T01:34:00.896Z,973.89
2018-06-20T01:35:00.878Z,973.92
2018-06-20T01:36:00.798Z,973.93
2018-06-20T01:37:00.751Z,973.91
2018-06-20T01:38:00.709Z,973.93
2018-06-20T01:39:00.692Z,973.88
2018-06-20T01:40:00.612Z,973.92
2018-06-20T01:41:00.595Z,973.92
2018-06-20T01:42:00.518Z,973.89
2018-06-20T01:43:00.484Z,973.88
2018-06-20T01:44:00.423Z,973.89
2018-06-20T01:45:00.384Z,973.91
2018-06-20T01:46:00.365Z,973.90
2018-06-20T01:47:00.318Z,973.86
2018-06-20T01:48:00.234Z,973.88
2018-06-20T01:49:00.187Z,973.88
2018-06-20T01:50:00.141Z,973.90
2018-06-20T01:51:00.093Z,973.87
2018-06-20T01:52:00.078Z,973.91
2018-06-20T01:53:00.000Z,973.86
2018-06-20T01:53:59.954Z,973.90
2018-06-20T01:54:59.909Z,973.91
2018-06-20T01:55:59.865Z,973.90
2018-06-20T01:56:59.834Z,973.88
2018-06-20T01:57:59.768Z,973.90
2018-06-20T01:58:59.719Z,973.92
2018-06-20T01:59:59.672Z,973.91
2018-06-20T02:00:59.657Z,973.88
2018-06-20T02:01:59.610Z,973.88
2018-06-20T02:02:59.530Z,973.91
2018-06-20T02:03:59.485Z,973.90
2018-06-20T02:04:59.438Z,973.89
2018-06-20T02:05:59.393Z,973.92
2018-06-20T02:06:59.375Z,973.89
2018-06-20T02:07:59.301Z,973.91
2018-06-20T02:08:59.248Z,973.91
2018-06-20T02:09:59.235Z,973.92
2018-06-20T02:10:59.155Z,973.91
2018-06-20T02:11:59.124Z,973.91
2018-06-20T02:12:59.061Z,973.90
2018-06-20T02:13:59.049Z,973.90
2018-06-20T02:14:58.968Z,973.86
2018-06-20T02:15:58.927Z,973.86
2018-06-20T02:16:58.875Z,973.85
2018-06-20T02:17:58.861Z,973.82
2018-06-20T02:18:58.783Z,973.83
2018-06-20T02:19:58.736Z,973.78
2018-06-20T02:20:58.688Z,973.81
2018-06-20T02:21:58.641Z,973.80
2018-06-20T02:22:58.631Z,973.77
2018-06-20T02:23:58.549Z,973.74
2018-06-20T02:24:58.498Z,973.71
2018-06-20T02:25:58.507Z,973.75
2018-06-20T02:26:58.407Z,973.73
2018-06-20T02:27:58.360Z,973.71
2018-06-20T02:28:58.312Z,973.71
2018-06-20T02:29:58.266Z,973.72
2018-06-20T02:30:58.253Z,973.74
2018-06-20T02:31:58.175Z,973.70
2018-06-20T02:32:58.133Z,973.70
2018-06-20T02:33:58.119Z,973.71
2018-06-20T02:34:58.031Z,973.68
2018-06-20T02:35:57.987Z,973.68
2018-06-20T02:36:57.938Z,973.69
2018-06-20T02:37:57.892Z,973.66
2018-06-20T02:38:57.886Z,973.66
2018-06-20T02:39:57.797Z,973.66
2018-06-20T02:40:57.749Z,973.65
2018-06-20T02:41:57.703Z,973.65
2018-06-20T02:42:57.657Z,973.63
2018-06-20T02:43:57.632Z,973.62
2018-06-20T02:44:57.561Z,973.61
2018-06-20T02:45:57.518Z,973.60
2018-06-20T02:46:57.470Z,973.62
2018-06-20T02:47:57.456Z,973.63
2018-06-20T02:48:57.377Z,973.61
2018-06-20T02:49:57.358Z,973.62
2018-06-20T02:50:57.280Z,973.59
2018-06-20T02:51:57.232Z,973.60
2018-06-20T02:52:57.216Z,973.60
2018-06-20T02:53:57.142Z,973.60
2018-06-20T02:54:57.094Z,973.62
2018-06-20T02:55:57.044Z,973.61
2018-06-20T02:56:56.996Z,973.56
2018-06-20T02:57:56.984Z,973.61
2018-06-20T02:58:56.903Z,973.60
2018-06-20T02:59:56.858Z,973.62
2018-06-20T03:00:56.811Z,973.59
2018-06-20T03:01:56.766Z,973.56
2018-06-20T03:02:56.746Z,973.55
2018-06-20T03:03:56.671Z,973.55
2018-06-20T03:04:56.628Z,973.53
2018-06-20T03:05:56.574Z,973.53
2018-06-20T03:06:56.528Z,973.50
2018-06-20T03:07:56.506Z,973.48
2018-06-20T03:08:56.431Z,973.52
2018-06-20T03:09:56.384Z,973.49
2018-06-20T03:10:56.341Z,973.48
2018-06-20T03:11:56.292Z,973.46
2018-06-20T03:12:56.275Z,973.46
2018-06-20T03:13:56.229Z,973.45
2018-06-20T03:14:56.179Z,973.44
2018-06-20T03:15:56.104Z,973.43
2018-06-20T03:16:56.052Z,973.48
2018-06-20T03:17:56.008Z,973.44
2018-06-20T03:18:55.961Z,973.50
2018-06-20T03:19:55.967Z,973.53
2018-06-20T03:20:55.870Z,973.50
2018-06-20T03:21:55.818Z,973.51
2018-06-20T03:22:55.770Z,973.48
2018-06-20T03:23:55.725Z,973.49
2018-06-20T03:24:55.709Z,973.50
2018-06-20T03:25:55.629Z,973.54
2018-06-20T03:26:55.583Z,973.53
2018-06-20T03:27:55.535Z,973.53
2018-06-20T03:28:55.518Z,973.49
2018-06-20T03:29:55.438Z,973.49
2018-06-20T03:30:55.425Z,973.49
2018-06-20T03:31:55.347Z,973.57
2018-06-20T03:32:55.300Z,973.51
2018-06-20T03:33:55.254Z,973.54
2018-06-20T03:34:55.203Z,973.54
2018-06-20T03:35:55.191Z,973.55
2018-06-20T03:36:55.108Z,973.53
2018-06-20T03:37:55.065Z,973.54
2018-06-20T03:38:55.018Z,973.50
2018-06-20T03:39:54.969Z,973.50
2018-06-20T03:40:54.954Z,973.53
2018-06-20T03:41:54.873Z,973.54
2018-06-20T03:42:54.828Z,973.54
2018-06-20T03:43:54.776Z,973.52
2018-06-20T03:44:54.732Z,973.51
2018-06-20T03:45:54.717Z,973.53
2018-06-20T03:46:54.635Z,973.52
2018-06-20T03:47:54.621Z,973.54
2018-06-20T03:48:54.539Z,973.52
2018-06-20T03:49:54.495Z,973.54
2018-06-20T03:50:54.450Z,973.54
2018-06-20T03:51:54.439Z,973.51
2018-06-20T03:52:54.353Z,973.57
2018-06-20T03:53:54.303Z,973.56
2018-06-20T03:54:54.257Z,973.57
2018-06-20T03:55:54.211Z,973.56
2018-06-20T03:56:54.196Z,973.56
2018-06-20T03:57:54.113Z,973.57
2018-06-20T03:58:54.101Z,973.57
2018-06-20T03:59:54.019Z,973.57
2018-06-20T04:00:53.972Z,973.55
2018-06-20T04:01:53.925Z,973.57
2018-06-20T04:02:53.909Z,973.53
2018-06-20T04:03:53.829Z,973.55
2018-06-20T04:04:53.817Z,973.52
2018-06-20T04:05:53.741Z,973.53
2018-06-20T04:06:53.692Z,973.56
2018-06-20T04:07:53.683Z,973.52
2018-06-20T04:08:53.595Z,973.52
2018-06-20T04:09:53.548Z,973.53
2018-06-20T04:10:53.498Z,973.54
2018-06-20T04:11:53.455Z,973.52
2018-06-20T04:12:53.439Z,973.51
2018-06-20T04:13:53.389Z,973.52
2018-06-20T04:14:53.315Z,973.49
2018-06-20T04:15:53.262Z,973.48
2018-06-20T04:16:53.253Z,973.50
2018-06-20T04:17:53.169Z,973.49
2018-06-20T04:18:53.119Z,973.47
2018-06-20T04:19:53.075Z,973.45
2018-06-20T04:20:53.029Z,973.44
2018-06-20T04:21:53.011Z,973.48
2018-06-20T04:22:52.931Z,973.47
2018-06-20T04:23:52.924Z,973.47
2018-06-20T04:24:52.836Z,973.49
2018-06-20T04:25:52.791Z,973.48
2018-06-20T04:26:52.740Z,973.51
2018-06-20T04:27:52.695Z,973.47
2018-06-20T04:28:52.696Z,973.49
2018-06-20T04:29:52.600Z,973.53
2018-06-20T04:30:52.554Z,973.53
2018-06-20T04:31:52.506Z,973.53
2018-06-20T04:32:52.460Z,973.53
2018-06-20T04:33:52.445Z,973.52
2018-06-20T04:34:52.461Z,973.50
2018-06-20T04:35:52.320Z,973.51
2018-06-20T04:36:52.271Z,973.51
2018-06-20T04:37:52.253Z,973.48
2018-06-20T04:38:52.175Z,973.47
2018-06-20T04:39:52.161Z,973.46
2018-06-20T04:40:52.082Z,973.46
2018-06-20T04:41:52.033Z,973.46
2018-06-20T04:42:51.987Z,973.50
2018-06-20T04:43:51.944Z,973.46
2018-06-20T04:44:51.926Z,973.45
2018-06-20T04:45:51.850Z,973.48
2018-06-20T04:46:51.802Z,973.47
2018-06-20T04:47:51.751Z,973.44
2018-06-20T04:48:51.734Z,973.39
2018-06-20T04:49:51.658Z,973.40
2018-06-20T04:50:51.652Z,973.44
2018-06-20T04:51:51.570Z,973.42
2018-06-20T04:52:51.517Z,973.41
2018-06-20T04:53:51.501Z,973.38
2018-06-20T04:54:51.423Z,973.40
2018-06-20T04:55:51.417Z,973.39
2018-06-20T04:56:51.327Z,973.38
2018-06-20T04:57:51.283Z,973.39
2018-06-20T04:58:51.261Z,973.40
2018-06-20T04:59:51.186Z,973.38
2018-06-20T05:00:51.180Z,973.35
2018-06-20T05:01:51.093Z,973.36
2018-06-20T05:02:51.046Z,973.36
2018-06-20T05:03:50.998Z,973.36
2018-06-20T05:04:51.000Z,973.40
2018-06-20T05:05:50.938Z,973.35
2018-06-20T05:06:50.860Z,973.34
2018-06-20T05:07:50.865Z,973.34
2018-06-20T05:08:50.765Z,973.32
2018-06-20T05:09:50.719Z,973.29
2018-06-20T05:10:50.673Z,973.33
2018-06-20T05:11:50.624Z,973.35
2018-06-20T05:12:50.608Z,973.32
2018-06-20T05:13:50.530Z,973.32
2018-06-20T05:14:50.525Z,973.33
2018-06-20T05:15:50.438Z,973.34
2018-06-20T05:16:50.393Z,973.33
2018-06-20T05:17:50.344Z,973.33
2018-06-20T05:18:50.299Z,973.34
2018-06-20T05:19:50.290Z,973.33
2018-06-20T05:20:50.202Z,973.33
2018-06-20T05:21:50.154Z,973.33
2018-06-20T05:22:50.111Z,973.33
2018-06-20T05:23:50.062Z,973.31
2018-06-20T05:24:50.061Z,973.31
2018-06-20T05:25:49.971Z,973.33
2018-06-20T05:26:49.922Z,973.33
2018-06-20T05:27:49.876Z,973.35
2018-06-20T05:28:49.833Z,973.31
2018-06-20T05:29:49.816Z,973.34
2018-06-20T05:30:49.738Z,973.35
2018-06-20T05:31:49.722Z,973.34
2018-06-20T05:32:49.654Z,973.35
2018-06-20T05:33:49.598Z,973.33
2018-06-20T05:34:49.551Z,973.36
2018-06-20T05:35:49.541Z,973.31
2018-06-20T05:36:49.459Z,973.33
2018-06-20T05:37:49.412Z,973.30
2018-06-20T05:38:49.403Z,973.32
2018-06-20T05:39:49.354Z,973.31
2018-06-20T05:40:49.273Z,973.31
2018-06-20T05:41:49.296Z,973.30
2018-06-20T05:42:49.180Z,973.33
2018-06-20T05:43:49.171Z,973.28
2018-06-20T05:44:49.089Z,973.28
2018-06-20T05:45:49.045Z,973.29
2018-06-20T05:46:49.032Z,973.29
2018-06-20T05:47:48.952Z,973.28
2018-06-20T05:48:48.908Z,973.33
2018-06-20T05:49:48.892Z,973.32
2018-06-20T05:50:48.849Z,973.32
2018-06-20T05:51:48.768Z,973.28
2018-06-20T05:52:48.723Z,973.27
2018-06-20T05:53:48.689Z,973.28
2018-06-20T05:54:48.672Z,973.28
2018-06-20T05:55:48.584Z,973.30
2018-06-20T05:56:48.542Z,973.27
2018-06-20T05:57:48.492Z,973.30
2018-06-20T05:58:48.454Z,973.32
2018-06-20T05:59:48.435Z,973.31
2018-06-20T06:00:48.357Z,973.30
2018-06-20T06:01:48.312Z,973.32
2018-06-20T06:02:48.266Z,973.29
2018-06-20T06:03:48.254Z,973.34
2018-06-20T06:04:48.174Z,973.32
2018-06-20T06:05:48.129Z,973.30
2018-06-20T06:06:48.086Z,973.33
2018-06-20T06:07:48.037Z,973.29
2018-06-20T06:08:48.030Z,973.28
2018-06-20T06:09:47.947Z,973.29
2018-06-20T06:10:47.903Z,973.33
2018-06-20T06:11:47.858Z,973.33
2018-06-20T06:12:47.813Z,973.30
2018-06-20T06:13:47.801Z,973.31
2018-06-20T06:14:47.725Z,973.29
2018-06-20T06:15:47.676Z,973.32
2018-06-20T06:16:47.769Z,973.28
2018-06-20T06:17:47.620Z,973.33
2018-06-20T06:18:47.574Z,973.29
2018-06-20T06:19:47.496Z,973.30
2018-06-20T06:20:47.453Z,973.30
2018-06-20T06:21:47.410Z,973.26
2018-06-20T06:22:47.363Z,973.22
2018-06-20T06:23:47.352Z,973.24
2018-06-20T06:24:47.277Z,973.22
2018-06-20T06:25:47.227Z,973.18
2018-06-20T06:26:47.182Z,973.25
2018-06-20T06:27:47.140Z,973.22
2018-06-20T06:28:47.149Z,973.22
2018-06-20T06:29:47.051Z,973.19
2018-06-20T06:30:47.004Z,973.25
2018-06-20T06:31:46.966Z,973.20
2018-06-20T06:32:46.918Z,973.23
2018-06-20T06:33:46.902Z,973.20
2018-06-20T06:34:46.860Z,973.19
2018-06-20T06:35:46.783Z,973.18
2018-06-20T06:36:46.740Z,973.15
2018-06-20T06:37:46.781Z,973.16
2018-06-20T06:38:46.650Z,973.22
2018-06-20T06:39:46.651Z,973.17
2018-06-20T06:40:46.560Z,973.22
2018-06-20T06:41:46.518Z,973.20
2018-06-20T06:42:46.471Z,973.22
2018-06-20T06:43:46.430Z,973.22
2018-06-20T06:44:46.416Z,973.24
2018-06-20T06:45:46.346Z,973.22
2018-06-20T06:46:46.326Z,973.22
2018-06-20T06:47:46.417Z,973.24
2018-06-20T06:48:46.203Z,973.17
2018-06-20T06:49:46.189Z,973.19
2018-06-20T06:50:46.158Z,973.19
2018-06-20T06:51:46.072Z,973.16
2018-06-20T06:52:46.027Z,973.20
2018-06-20T06:53:45.984Z,973.19
2018-06-20T06:54:45.941Z,973.20
2018-06-20T06:55:45.928Z,973.17
2018-06-20T06:56:45.851Z,973.21
2018-06-20T06:57:45.844Z,973.21
2018-06-20T06:58:45.763Z,973.18
2018-06-20T06:59:45.719Z,973.21
2018-06-20T07:00:45.679Z,973.17
2018-06-20T07:01:45.634Z,973.19
2018-06-20T07:02:45.677Z,973.17
2018-06-20T07:03:45.543Z,973.17
2018-06-20T07:04:45.503Z,973.18
2018-06-20T07:05:45.489Z,973.21
2018-06-20T07:06:45.416Z,973.18
2018-06-20T07:07:45.372Z,973.20
2018-06-20T07:08:45.355Z,973.24
2018-06-20T07:09:45.289Z,973.17
2018-06-20T07:10:45.270Z,973.19
2018-06-20T07:11:45.196Z,973.17
2018-06-20T07:12:45.150Z,973.16
2018-06-20T07:13:45.155Z,973.19
2018-06-20T07:14:45.066Z,973.12
2018-06-20T07:15:45.023Z,973.09
2018-06-20T07:16:44.971Z,973.13
2018-06-20T07:17:44.929Z,973.13
2018-06-20T07:18:44.916Z,973.13
2018-06-20T07:19:44.844Z,973.13
2018-06-20T07:20:44.798Z,973.15
2018-06-20T07:21:44.754Z,973.17
2018-06-20T07:22:44.711Z,973.16
2018-06-20T07:23:44.700Z,973.15
2018-06-20T07:24:44.623Z,973.18
2018-06-20T07:25:44.581Z,973.18
2018-06-20T07:26:44.540Z,973.15
2018-06-20T07:27:44.546Z,973.17
2018-06-20T07:28:44.450Z,973.15
2018-06-20T07:29:44.408Z,973.14
2018-06-20T07:30:44.362Z,973.14
2018-06-20T07:31:44.320Z,973.11
2018-06-20T07:32:44.318Z,973.19
2018-06-20T07:33:44.233Z,973.17
2018-06-20T07:34:44.189Z,973.16
2018-06-20T07:35:44.228Z,973.13
2018-06-20T07:36:44.101Z,973.18
2018-06-20T07:37:44.093Z,973.16
2018-06-20T07:38:44.016Z,973.16
2018-06-20T07:39:43.975Z,973.14
2018-06-20T07:40:43.928Z,973.12
2018-06-20T07:41:43.889Z,973.11
2018-06-20T07:42:43.885Z,973.12
2018-06-20T07:43:43.805Z,973.12
2018-06-20T07:44:43.760Z,973.14
2018-06-20T07:45:43.716Z,973.06
2018-06-20T07:46:43.675Z,973.07
2018-06-20T07:47:43.661Z,973.11
2018-06-20T07:48:43.587Z,973.09
2018-06-20T07:49:43.585Z,973.14
2018-06-20T07:50:43.555Z,973.12
2018-06-20T07:51:43.459Z,973.11
2018-06-20T07:52:43.413Z,973.11
2018-06-20T07:53:43.370Z,973.12
2018-06-20T07:54:43.362Z,973.11
2018-06-20T07:55:43.299Z,973.11
2018-06-20T07:56:43.242Z,973.08
2018-06-20T07:57:43.231Z,973.12
2018-06-20T07:58:43.164Z,973.08
2018-06-20T07:59:43.116Z,973.08
2018-06-20T08:00:43.079Z,973.06
2018-06-20T08:01:43.031Z,973.01
2018-06-20T08:02:43.019Z,973.03
2018-06-20T08:03:42.946Z,973.00
2018-06-20T08:04:42.942Z,973.00
2018-06-20T08:05:42.859Z,973.00
2018-06-20T08:06:42.816Z,973.03
2018-06-20T08:07:42.775Z,973.03
2018-06-20T08:08:42.779Z,972.99
2018-06-20T08:09:42.697Z,973.01
2018-06-20T08:10:42.646Z,972.99
2018-06-20T08:11:42.614Z,972.95
2018-06-20T08:12:42.564Z,972.97
2018-06-20T08:13:42.560Z,972.92
2018-06-20T08:14:42.478Z,972.90
2018-06-20T08:15:42.445Z,972.88
2018-06-20T08:16:42.396Z,973.00
2018-06-20T08:17:42.352Z,972.93
2018-06-20T08:18:42.342Z,972.99
2018-06-20T08:19:42.270Z,972.98
2018-06-20T08:20:42.225Z,972.98
2018-06-20T08:21:42.188Z,972.95
2018-06-20T08:22:42.180Z,972.94
2018-06-20T08:23:42.100Z,972.89
2018-06-20T08:24:42.057Z,972.90
2018-06-20T08:25:42.048Z,972.92
2018-06-20T08:26:41.976Z,972.91
2018-06-20T08:27:41.965Z,972.88
2018-06-20T08:28:41.890Z,972.92
2018-06-20T08:29:41.850Z,972.95
2018-06-20T08:30:41.812Z,972.93
2018-06-20T08:31:41.805Z,972.90
2018-06-20T08:32:41.725Z,972.94
2018-06-20T08:33:41.686Z,972.93
2018-06-20T08:34:41.641Z,972.90
2018-06-20T08:35:41.604Z,972.90
2018-06-20T08:36:41.594Z,972.94
2018-06-20T08:37:41.519Z,972.96
2018-06-20T08:38:41.480Z,972.91
2018-06-20T08:39:41.436Z,972.91
2018-06-20T08:40:41.394Z,972.96
2018-06-20T08:41:41.384Z,972.95
2018-06-20T08:42:41.312Z,972.98
2018-06-20T08:43:41.274Z,972.99
2018-06-20T08:44:41.262Z,972.96
2018-06-20T08:45:41.221Z,972.90
2018-06-20T08:46:41.149Z,972.95
2018-06-20T08:47:41.108Z,972.89
2018-06-20T08:48:41.069Z,972.92
2018-06-20T08:49:41.057Z,972.93
2018-06-20T08:50:40.990Z,972.92
2018-06-20T08:51:40.946Z,972.90
2018-06-20T08:52:40.907Z,972.88
2018-06-20T08:53:40.864Z,972.91
2018-06-20T08:54:40.858Z,972.91
2018-06-20T08:55:40.785Z,972.98
2018-06-20T08:56:40.745Z,972.92
2018-06-20T08:57:40.730Z,972.96
2018-06-20T08:58:40.665Z,972.95
2018-06-20T08:59:40.656Z,972.96
2018-06-20T09:00:40.589Z,972.99
2018-06-20T09:01:40.573Z,972.97
2018-06-20T09:02:40.500Z,972.96
2018-06-20T09:03:40.462Z,972.99
2018-06-20T09:04:40.461Z,972.97
2018-06-20T09:05:40.382Z,973.00
2018-06-20T09:06:40.345Z,973.01
2018-06-20T09:07:40.300Z,972.96
2018-06-20T09:08:40.345Z,972.96
2018-06-20T09:09:40.219Z,972.94
2018-06-20T09:10:40.183Z,972.87
2018-06-20T09:11:40.144Z,972.83
2018-06-20T09:12:40.102Z,972.86
2018-06-20T09:13:40.095Z,972.87
2018-06-20T09:14:40.023Z,972.94
2018-06-20T09:15:39.985Z,972.93
2018-06-20T09:16:39.974Z,972.98
2018-06-20T09:17:39.904Z,972.97
2018-06-20T09:18:39.863Z,972.93
2018-06-20T09:19:39.825Z,972.99
2018-06-20T09:20:39.785Z,972.96
2018-06-20T09:21:39.782Z,972.94
2018-06-20T09:22:39.706Z,972.95
2018-06-20T09:23:39.669Z,972.93
2018-06-20T09:24:39.629Z,972.92
2018-06-20T09:25:39.593Z,972.93
2018-06-20T09:26:39.583Z,972.95
2018-06-20T09:27:39.549Z,972.88
2018-06-20T09:28:39.471Z,972.87
2018-06-20T09:29:39.435Z,972.89
2018-06-20T09:30:39.393Z,972.89
2018-06-20T09:31:39.356Z,972.92
2018-06-20T09:32:39.357Z,972.91
2018-06-20T09:33:39.277Z,972.84
2018-06-20T09:34:39.238Z,972.80
2018-06-20T09:35:39.199Z,972.78
2018-06-20T09:36:39.165Z,972.80
2018-06-20T09:37:39.172Z,972.79
2018-06-20T09:38:39.112Z,972.79
2018-06-20T09:39:39.080Z,972.85
2018-06-20T09:40:39.006Z,972.88
2018-06-20T09:41:38.969Z,972.90
2018-06-20T09:42:38.960Z,972.89
2018-06-20T09:43:38.896Z,972.89
2018-06-20T09:44:38.888Z,972.88
2018-06-20T09:45:38.816Z,972.88
2018-06-20T09:46:38.808Z,972.97
2018-06-20T09:47:38.739Z,972.90
2018-06-20T09:48:38.702Z,972.85
2018-06-20T09:49:38.661Z,972.82
2018-06-20T09:50:38.625Z,972.89
2018-06-20T09:51:38.647Z,972.87
2018-06-20T09:52:38.546Z,972.85
2018-06-20T09:53:38.512Z,972.83
2018-06-20T09:54:38.469Z,972.80
2018-06-20T09:55:38.431Z,972.79
2018-06-20T09:56:38.427Z,972.75
2018-06-20T09:57:38.361Z,972.77
2018-06-20T09:58:38.361Z,972.82
2018-06-20T09:59:38.326Z,972.74
2018-06-20T10:00:38.293Z,972.79
2018-06-20T10:01:38.270Z,972.74
2018-06-20T10:02:38.163Z,972.75
2018-06-20T10:03:38.159Z,972.83
2018-06-20T10:04:38.086Z,972.86
2018-06-20T10:05:38.048Z,972.88
2018-06-20T10:06:38.010Z,972.82
2018-06-20T10:07:38.003Z,972.82
2018-06-20T10:08:37.931Z,972.83
2018-06-20T10:09:37.900Z,972.80
2018-06-20T10:10:37.853Z,972.83
2018-06-20T10:11:37.816Z,972.84
2018-06-20T10:12:37.818Z,972.81
2018-06-20T10:13:37.742Z,972.85
2018-06-20T10:14:37.707Z,972.86
2018-06-20T10:15:37.667Z,972.79
2018-06-20T10:16:37.627Z,972.81
2018-06-20T10:17:37.619Z,972.77
2018-06-20T10:18:37.554Z,972.73
2018-06-20T10:19:37.513Z,972.75
2018-06-20T10:20:37.480Z,972.78
2018-06-20T10:21:37.490Z,972.64
2018-06-20T10:22:37.397Z,972.67
2018-06-20T10:23:37.364Z,972.66
2018-06-20T10:24:37.355Z,972.68
2018-06-20T10:25:37.284Z,972.67
2018-06-20T10:26:37.244Z,972.74
2018-06-20T10:27:37.707Z,972.74
2018-06-20T10:28:37.248Z,972.71
2018-06-20T10:29:37.132Z,972.70
2018-06-20T10:30:37.105Z,972.68
2018-06-20T10:31:37.057Z,972.65
2018-06-20T10:32:37.021Z,972.67
2018-06-20T10:33:37.011Z,972.58
2018-06-20T10:34:36.946Z,972.66
2018-06-20T10:35:36.906Z,972.60
2018-06-20T10:36:36.899Z,972.52
2018-06-20T10:37:36.828Z,972.54
2018-06-20T10:38:36.796Z,972.57
2018-06-20T10:39:36.777Z,972.59
2018-06-20T10:40:36.716Z,972.60
2018-06-20T10:41:36.679Z,972.57
2018-06-20T10:42:36.643Z,972.65
2018-06-20T10:43:36.606Z,972.57
2018-06-20T10:44:36.599Z,972.60
2018-06-20T10:45:36.531Z,972.60
2018-06-20T10:46:36.539Z,972.57
2018-06-20T10:47:36.452Z,972.52
2018-06-20T10:48:36.415Z,972.46
2018-06-20T10:49:36.418Z,972.44
2018-06-20T10:50:36.340Z,972.44
2018-06-20T10:51:36.304Z,972.41
2018-06-20T10:52:36.274Z,972.46
2018-06-20T10:53:36.229Z,972.49
2018-06-20T10:54:36.224Z,972.43
2018-06-20T10:55:36.152Z,972.41
2018-06-20T10:56:36.116Z,972.40
2018-06-20T10:57:36.078Z,972.41
2018-06-20T10:58:36.073Z,972.36
2018-06-20T10:59:36.005Z,972.33
2018-06-20T11:00:36.026Z,972.31
2018-06-20T11:01:35.934Z,972.32
2018-06-20T11:02:35.889Z,972.31
2018-06-20T11:03:35.886Z,972.35
2018-06-20T11:04:35.813Z,972.33
2018-06-20T11:05:35.781Z,972.24
2018-06-20T11:06:35.791Z,972.22
2018-06-20T11:07:35.712Z,972.27
2018-06-20T11:08:35.667Z,972.28
2018-06-20T11:09:35.670Z,972.21
2018-06-20T11:10:35.593Z,972.23
2018-06-20T11:11:35.598Z,972.24
2018-06-20T11:12:35.519Z,972.20
2018-06-20T11:13:35.484Z,972.21
2018-06-20T11:14:35.444Z,972.20
2018-06-20T11:15:35.405Z,972.20
2018-06-20T11:16:35.405Z,972.21
2018-06-20T11:17:35.330Z,972.23
2018-06-20T11:18:35.329Z,972.17
2018-06-20T11:19:35.261Z,972.12
2018-06-20T11:20:35.222Z,972.02
2018-06-20T11:21:35.184Z,972.06
2018-06-20T11:22:35.152Z,972.05
2018-06-20T11:23:35.156Z,972.01
2018-06-20T11:24:35.073Z,972.02
2018-06-20T11:25:35.036Z,972.09
2018-06-20T11:26:34.999Z,972.05
2018-06-20T11:27:34.962Z,972.06
2018-06-20T11:28:34.953Z,971.97
2018-06-20T11:29:34.888Z,972.02
2018-06-20T11:30:34.849Z,972.03
2018-06-20T11:31:34.823Z,971.99
2018-06-20T11:32:34.772Z,971.99
2018-06-20T11:33:34.775Z,971.97
2018-06-20T11:34:34.698Z,971.91
2018-06-20T11:35:34.694Z,971.93
2018-06-20T11:36:34.628Z,971.94
2018-06-20T11:37:34.588Z,971.95
2018-06-20T11:38:34.555Z,971.91
2018-06-20T11:39:34.603Z,971.87
2018-06-20T11:40:34.517Z,971.85
2018-06-20T11:41:34.463Z,971.78
2018-06-20T11:42:34.402Z,971.78
2018-06-20T11:43:34.369Z,971.77
2018-06-20T11:44:34.324Z,971.73
2018-06-20T11:45:34.322Z,971.71
2018-06-20T11:46:34.285Z,971.74
2018-06-20T11:47:34.246Z,971.73
2018-06-20T11:48:34.180Z,971.72
2018-06-20T11:49:34.142Z,971.77
2018-06-20T11:50:34.111Z,971.74
2018-06-20T11:51:34.100Z,971.60
2018-06-20T11:52:34.031Z,971.62
2018-06-20T11:53:34.028Z,971.70
2018-06-20T11:54:33.957Z,971.66
2018-06-20T11:55:33.926Z,971.58
2018-06-20T11:56:33.886Z,971.63
2018-06-20T11:57:33.893Z,971.64
2018-06-20T11:58:33.810Z,971.60
2018-06-20T11:59:33.924Z,971.65
2018-06-20T12:00:33.737Z,971.62
2018-06-20T12:01:33.699Z,971.57
2018-06-20T12:02:33.700Z,971.58
2018-06-20T12:03:33.625Z,971.59
2018-06-20T12:04:33.593Z,971.52
2018-06-20T12:05:33.636Z,971.60
2018-06-20T12:06:33.517Z,971.54
2018-06-20T12:07:33.478Z,971.55
2018-06-20T12:08:33.441Z,971.55
2018-06-20T12:09:33.407Z,971.51
2018-06-20T12:10:33.410Z,971.59
2018-06-20T12:11:33.331Z,971.63
2018-06-20T12:12:33.291Z,971.58
2018-06-20T12:13:33.316Z,971.57
2018-06-20T12:14:33.221Z,971.54
2018-06-20T12:15:33.214Z,971.52
2018-06-20T12:16:33.146Z,971.53
2018-06-20T12:17:33.107Z,971.52
2018-06-20T12:18:33.072Z,971.55
2018-06-20T12:19:33.035Z,971.46
2018-06-20T12:20:33.034Z,971.39
2018-06-20T12:21:32.965Z,971.38
2018-06-20T12:22:32.923Z,971.32
2018-06-20T12:23:32.924Z,971.40
2018-06-20T12:24:32.854Z,971.42
2018-06-20T12:25:32.828Z,971.44
2018-06-20T12:26:32.819Z,971.37
2018-06-20T12:27:32.744Z,971.31